sensor_id;sensor_type;location;lat;lon;timestamp;pressure;altitude;pressure_sealevel;temperature;humidity
15646;BME280;7922;43.622;1.476;2023-11-21T00:02:14;100425.50;;;9.97;100.00
15646;BME280;7922;43.622;1.476;2023-11-21T00:04:40;100419.38;;;9.95;100.00
15646;BME280;7922;43.622;1.476;2023-11-21T00:07:05;100383.88;;;9.75;100.00
15646;BME280;7922;43.622;1.476;2023-11-21T00:09:30;100398.72;;;9.79;100.00
15646;BME280;7922;43.622;1.476;2023-11-21T00:11:56;100413.97;;;9.99;100.00
15646;BME280;7922;43.622;1.476;2023-11-21T00:14:21;100400.84;;;9.95;100.00
15646;BME280;7922;43.622;1.476;2023-11-21T00:16:46;100428.72;;;10.06;100.00
15646;BME280;7922;43.622;1.476;2023-11-21T00:19:12;100417.41;;;10.01;100.00
15646;BME280;7922;43.622;1.476;2023-11-21T00:21:37;100405.91;;;10.02;100.00
15646;BME280;7922;43.622;1.476;2023-11-21T00:24:02;100397.16;;;10.00;100.00
15646;BME280;7922;43.622;1.476;2023-11-21T00:26:27;100384.19;;;9.93;100.00
15646;BME280;7922;43.622;1.476;2023-11-21T00:28:53;100416.34;;;10.07;100.00
15646;BME280;7922;43.622;1.476;2023-11-21T00:31:18;100404.13;;;10.03;100.00
15646;BME280;7922;43.622;1.476;2023-11-21T00:33:43;100408.50;;;10.04;100.00
15646;BME280;7922;43.622;1.476;2023-11-21T00:36:09;100420.56;;;10.12;100.00
15646;BME280;7922;43.622;1.476;2023-11-21T00:38:35;100365.94;;;9.83;100.00
15646;BME280;7922;43.622;1.476;2023-11-21T00:41:00;100404.94;;;10.05;100.00
15646;BME280;7922;43.622;1.476;2023-11-21T00:43:26;100417.00;;;10.13;100.00
15646;BME280;7922;43.622;1.476;2023-11-21T00:45:51;100401.53;;;10.01;100.00
15646;BME280;7922;43.622;1.476;2023-11-21T00:48:16;100371.03;;;9.89;100.00
15646;BME280;7922;43.622;1.476;2023-11-21T00:50:41;100384.84;;;9.99;100.00
15646;BME280;7922;43.622;1.476;2023-11-21T00:53:07;100397.81;;;10.07;100.00
15646;BME280;7922;43.622;1.476;2023-11-21T00:55:33;100403.13;;;10.07;100.00
15646;BME280;7922;43.622;1.476;2023-11-21T00:57:59;100398.69;;;10.07;100.00
15646;BME280;7922;43.622;1.476;2023-11-21T01:00:24;100391.16;;;9.95;100.00
15646;BME280;7922;43.622;1.476;2023-11-21T01:02:49;100381.38;;;9.97;100.00
15646;BME280;7922;43.622;1.476;2023-11-21T01:05:14;100347.44;;;9.83;100.00
15646;BME280;7922;43.622;1.476;2023-11-21T01:07:40;100369.00;;;9.98;100.00
15646;BME280;7922;43.622;1.476;2023-11-21T01:10:05;100381.19;;;10.03;100.00
15646;BME280;7922;43.622;1.476;2023-11-21T01:12:31;100349.88;;;9.89;100.00
15646;BME280;7922;43.622;1.476;2023-11-21T01:14:56;100374.94;;;10.06;100.00
15646;BME280;7922;43.622;1.476;2023-11-21T01:17:22;100380.09;;;10.09;100.00
15646;BME280;7922;43.622;1.476;2023-11-21T01:19:47;100379.19;;;10.10;100.00
15646;BME280;7922;43.622;1.476;2023-11-21T01:22:12;100336.81;;;9.85;100.00
15646;BME280;7922;43.622;1.476;2023-11-21T01:24:37;100350.66;;;9.93;100.00
15646;BME280;7922;43.622;1.476;2023-11-21T01:27:03;100348.81;;;9.95;100.00
15646;BME280;7922;43.622;1.476;2023-11-21T01:29:28;100362.56;;;10.06;100.00
15646;BME280;7922;43.622;1.476;2023-11-21T01:31:53;100372.88;;;10.14;100.00
15646;BME280;7922;43.622;1.476;2023-11-21T01:34:19;100378.84;;;10.19;100.00
15646;BME280;7922;43.622;1.476;2023-11-21T01:36:45;100366.56;;;10.18;100.00
15646;BME280;7922;43.622;1.476;2023-11-21T01:39:11;100372.88;;;10.14;100.00
15646;BME280;7922;43.622;1.476;2023-11-21T01:41:36;100357.16;;;10.09;100.00
15646;BME280;7922;43.622;1.476;2023-11-21T01:44:02;100340.00;;;9.95;100.00
15646;BME280;7922;43.622;1.476;2023-11-21T01:46:27;100328.66;;;9.91;100.00
15646;BME280;7922;43.622;1.476;2023-11-21T01:48:52;100378.84;;;10.19;100.00
15646;BME280;7922;43.622;1.476;2023-11-21T01:51:19;100354.50;;;10.09;100.00
15646;BME280;7922;43.622;1.476;2023-11-21T01:53:44;100375.41;;;10.17;100.00
15646;BME280;7922;43.622;1.476;2023-11-21T01:56:10;100357.28;;;10.05;100.00
15646;BME280;7922;43.622;1.476;2023-11-21T01:58:35;100349.25;;;10.08;100.00
15646;BME280;7922;43.622;1.476;2023-11-21T02:01:00;100353.84;;;10.03;100.00
15646;BME280;7922;43.622;1.476;2023-11-21T02:03:26;100308.78;;;9.79;100.00
15646;BME280;7922;43.622;1.476;2023-11-21T02:05:52;100317.56;;;9.80;100.00
15646;BME280;7922;43.622;1.476;2023-11-21T02:08:17;100347.91;;;9.96;100.00
15646;BME280;7922;43.622;1.476;2023-11-21T02:10:42;100333.91;;;9.93;100.00
15646;BME280;7922;43.622;1.476;2023-11-21T02:13:08;100326.91;;;9.92;100.00
15646;BME280;7922;43.622;1.476;2023-11-21T02:15:33;100334.09;;;9.86;100.00
15646;BME280;7922;43.622;1.476;2023-11-21T02:17:58;100322.09;;;9.76;100.00
15646;BME280;7922;43.622;1.476;2023-11-21T02:20:24;100328.97;;;9.82;100.00
15646;BME280;7922;43.622;1.476;2023-11-21T02:22:56;100324.47;;;9.84;100.00
15646;BME280;7922;43.622;1.476;2023-11-21T02:25:22;100333.34;;;9.83;100.00
15646;BME280;7922;43.622;1.476;2023-11-21T02:27:47;100333.25;;;9.86;100.00
15646;BME280;7922;43.622;1.476;2023-11-21T02:30:12;100318.59;;;9.76;100.00
15646;BME280;7922;43.622;1.476;2023-11-21T02:32:38;100325.41;;;9.83;100.00
15646;BME280;7922;43.622;1.476;2023-11-21T02:35:03;100313.19;;;9.79;100.00
15646;BME280;7922;43.622;1.476;2023-11-21T02:37:29;100289.84;;;9.65;100.00
15646;BME280;7922;43.622;1.476;2023-11-21T02:39:54;100305.31;;;9.77;100.00
15646;BME280;7922;43.622;1.476;2023-11-21T02:42:19;100294.13;;;9.69;100.00
15646;BME280;7922;43.622;1.476;2023-11-21T02:44:45;100297.50;;;9.74;100.00
15646;BME280;7922;43.622;1.476;2023-11-21T02:47:10;100257.78;;;9.49;100.00
15646;BME280;7922;43.622;1.476;2023-11-21T02:49:35;100286.91;;;9.74;100.00
15646;BME280;7922;43.622;1.476;2023-11-21T02:52:01;100281.91;;;9.65;100.00
15646;BME280;7922;43.622;1.476;2023-11-21T02:54:27;100307.91;;;9.79;100.00
15646;BME280;7922;43.622;1.476;2023-11-21T02:56:52;100280.13;;;9.65;100.00
15646;BME280;7922;43.622;1.476;2023-11-21T02:59:17;100286.06;;;9.74;100.00
15646;BME280;7922;43.622;1.476;2023-11-21T03:01:43;100277.44;;;9.67;100.00
15646;BME280;7922;43.622;1.476;2023-11-21T03:04:08;100270.63;;;9.60;100.00
15646;BME280;7922;43.622;1.476;2023-11-21T03:06:33;100270.75;;;9.57;100.00
15646;BME280;7922;43.622;1.476;2023-11-21T03:08:59;100275.75;;;9.64;100.00
15646;BME280;7922;43.622;1.476;2023-11-21T03:11:24;100267.13;;;9.59;100.00
15646;BME280;7922;43.622;1.476;2023-11-21T03:13:49;100275.75;;;9.64;100.00
15646;BME280;7922;43.622;1.476;2023-11-21T03:16:15;100236.81;;;9.43;100.00
15646;BME280;7922;43.622;1.476;2023-11-21T03:18:41;100246.66;;;9.64;100.00
15646;BME280;7922;43.622;1.476;2023-11-21T03:21:06;100248.81;;;9.53;100.00
15646;BME280;7922;43.622;1.476;2023-11-21T03:23:32;100199.22;;;9.35;100.00
15646;BME280;7922;43.622;1.476;2023-11-21T03:25:58;100251.94;;;9.66;100.00
15646;BME280;7922;43.622;1.476;2023-11-21T03:28:23;100250.25;;;9.63;100.00
15646;BME280;7922;43.622;1.476;2023-11-21T03:30:49;100227.94;;;9.46;100.00
15646;BME280;7922;43.622;1.476;2023-11-21T03:33:14;100255.44;;;9.67;100.00
15646;BME280;7922;43.622;1.476;2023-11-21T03:35:39;100242.59;;;9.54;100.00
15646;BME280;7922;43.622;1.476;2023-11-21T03:38:04;100250.41;;;9.59;100.00
15646;BME280;7922;43.622;1.476;2023-11-21T03:40:30;100246.34;;;9.49;100.00
15646;BME280;7922;43.622;1.476;2023-11-21T03:42:55;100251.19;;;9.61;100.00
15646;BME280;7922;43.622;1.476;2023-11-21T03:45:20;100253.06;;;9.59;100.00
15646;BME280;7922;43.622;1.476;2023-11-21T03:47:45;100253.84;;;9.61;100.00
15646;BME280;7922;43.622;1.476;2023-11-21T03:50:11;100272.19;;;9.65;100.00
15646;BME280;7922;43.622;1.476;2023-11-21T03:52:37;100254.00;;;9.56;100.00
15646;BME280;7922;43.622;1.476;2023-11-21T03:55:02;100241.09;;;9.47;100.00
15646;BME280;7922;43.622;1.476;2023-11-21T03:57:28;100246.06;;;9.56;100.00
15646;BME280;7922;43.622;1.476;2023-11-21T03:59:53;100268.00;;;9.60;100.00
15646;BME280;7922;43.622;1.476;2023-11-21T04:02:18;100256.31;;;9.65;100.00
15646;BME280;7922;43.622;1.476;2023-11-21T04:04:44;100248.63;;;9.59;100.00
15646;BME280;7922;43.622;1.476;2023-11-21T04:07:09;100242.50;;;9.57;100.00
15646;BME280;7922;43.622;1.476;2023-11-21T04:09:34;100258.44;;;9.56;100.00
15646;BME280;7922;43.622;1.476;2023-11-21T04:11:59;100244.63;;;9.48;100.00
15646;BME280;7922;43.622;1.476;2023-11-21T04:14:25;100231.88;;;9.32;100.00
15646;BME280;7922;43.622;1.476;2023-11-21T04:16:50;100243.97;;;9.41;100.00
15646;BME280;7922;43.622;1.476;2023-11-21T04:19:15;100238.78;;;9.38;100.00
15646;BME280;7922;43.622;1.476;2023-11-21T04:21:41;100239.56;;;9.40;100.00
15646;BME280;7922;43.622;1.476;2023-11-21T04:24:07;100229.16;;;9.35;100.00
15646;BME280;7922;43.622;1.476;2023-11-21T04:26:32;100228.19;;;9.38;100.00
15646;BME280;7922;43.622;1.476;2023-11-21T04:28:58;100223.56;;;9.45;100.00
15646;BME280;7922;43.622;1.476;2023-11-21T04:31:23;100233.31;;;9.43;100.00
15646;BME280;7922;43.622;1.476;2023-11-21T04:33:48;100194.28;;;9.24;100.00
15646;BME280;7922;43.622;1.476;2023-11-21T04:36:14;100233.31;;;9.43;100.00
15646;BME280;7922;43.622;1.476;2023-11-21T04:38:39;100202.03;;;9.30;100.00
15646;BME280;7922;43.622;1.476;2023-11-21T04:41:04;100220.28;;;9.36;100.00
15646;BME280;7922;43.622;1.476;2023-11-21T04:43:30;100214.78;;;9.44;100.00
15646;BME280;7922;43.622;1.476;2023-11-21T04:45:55;100204.31;;;9.41;100.00
15646;BME280;7922;43.622;1.476;2023-11-21T04:48:20;100209.53;;;9.43;100.00
15646;BME280;7922;43.622;1.476;2023-11-21T04:50:46;100208.72;;;9.40;100.00
15646;BME280;7922;43.622;1.476;2023-11-21T04:53:11;100160.19;;;9.16;100.00
15646;BME280;7922;43.622;1.476;2023-11-21T04:55:36;100196.50;;;9.36;100.00
15646;BME280;7922;43.622;1.476;2023-11-21T04:58:01;100173.06;;;9.26;100.00
15646;BME280;7922;43.622;1.476;2023-11-21T05:00:27;100168.53;;;9.29;100.00
15646;BME280;7922;43.622;1.476;2023-11-21T05:02:52;100164.53;;;9.18;100.00
15646;BME280;7922;43.622;1.476;2023-11-21T05:05:17;100191.06;;;9.41;100.00
15646;BME280;7922;43.622;1.476;2023-11-21T05:07:44;100216.25;;;9.51;100.00
15646;BME280;7922;43.622;1.476;2023-11-21T05:10:09;100230.91;;;9.61;100.00
15646;BME280;7922;43.622;1.476;2023-11-21T05:12:35;100200.47;;;9.50;100.00
15646;BME280;7922;43.622;1.476;2023-11-21T05:15:00;100178.81;;;9.38;100.00
15646;BME280;7922;43.622;1.476;2023-11-21T05:17:25;100177.84;;;9.41;100.00
15646;BME280;7922;43.622;1.476;2023-11-21T05:19:51;100220.44;;;9.58;100.00
15646;BME280;7922;43.622;1.476;2023-11-21T05:22:16;100211.72;;;9.55;100.00
15646;BME280;7922;43.622;1.476;2023-11-21T05:24:41;100222.84;;;9.66;100.00
15646;BME280;7922;43.622;1.476;2023-11-21T05:27:06;100185.25;;;9.56;100.00
15646;BME280;7922;43.622;1.476;2023-11-21T05:29:32;100214.63;;;9.74;100.00
15646;BME280;7922;43.622;1.476;2023-11-21T05:31:57;100176.50;;;9.54;100.00
15646;BME280;7922;43.622;1.476;2023-11-21T05:34:22;100209.47;;;9.69;100.00
15646;BME280;7922;43.622;1.476;2023-11-21T05:36:47;100210.38;;;9.70;100.00
15646;BME280;7922;43.622;1.476;2023-11-21T05:39:14;100216.44;;;9.72;100.00
15646;BME280;7922;43.622;1.476;2023-11-21T05:41:39;100170.44;;;9.51;100.00
15646;BME280;7922;43.622;1.476;2023-11-21T05:44:04;100208.47;;;9.73;100.00
15646;BME280;7922;43.622;1.476;2023-11-21T05:46:30;100199.06;;;9.64;100.00
15646;BME280;7922;43.622;1.476;2023-11-21T05:48:55;100193.75;;;9.66;100.00
15646;BME280;7922;43.622;1.476;2023-11-21T05:51:20;100205.88;;;9.72;100.00
15646;BME280;7922;43.622;1.476;2023-11-21T05:53:45;100212.78;;;9.76;100.00
15646;BME280;7922;43.622;1.476;2023-11-21T05:56:11;100199.66;;;9.73;100.00
15646;BME280;7922;43.622;1.476;2023-11-21T05:58:36;100183.94;;;9.68;100.00
15646;BME280;7922;43.622;1.476;2023-11-21T06:01:02;100190.81;;;9.74;100.00
15646;BME280;7922;43.622;1.476;2023-11-21T06:03:30;100183.00;;;9.71;100.00
15646;BME280;7922;43.622;1.476;2023-11-21T06:05:55;100192.53;;;9.75;100.00
15646;BME280;7922;43.622;1.476;2023-11-21T06:08:21;100212.72;;;9.77;100.00
15646;BME280;7922;43.622;1.476;2023-11-21T06:10:46;100203.22;;;9.72;100.00
15646;BME280;7922;43.622;1.476;2023-11-21T06:13:11;100193.78;;;9.64;100.00
15646;BME280;7922;43.622;1.476;2023-11-21T06:15:36;100193.78;;;9.64;100.00
15646;BME280;7922;43.622;1.476;2023-11-21T06:18:02;100209.34;;;9.74;100.00
15646;BME280;7922;43.622;1.476;2023-11-21T06:20:27;100205.06;;;9.70;100.00
15646;BME280;7922;43.622;1.476;2023-11-21T06:22:53;100169.59;;;9.50;100.00
15646;BME280;7922;43.622;1.476;2023-11-21T06:25:19;100221.81;;;9.70;100.00
15646;BME280;7922;43.622;1.476;2023-11-21T06:27:48;100203.38;;;9.67;100.00
15646;BME280;7922;43.622;1.476;2023-11-21T06:30:14;100212.94;;;9.71;100.00
15646;BME280;7922;43.622;1.476;2023-11-21T06:32:40;100194.69;;;9.63;100.00
15646;BME280;7922;43.622;1.476;2023-11-21T06:35:05;100196.38;;;9.66;100.00
15646;BME280;7922;43.622;1.476;2023-11-21T06:37:32;100190.97;;;9.69;100.00
15646;BME280;7922;43.622;1.476;2023-11-21T06:40:00;100191.88;;;9.68;100.00
15646;BME280;7922;43.622;1.476;2023-11-21T06:42:26;100199.50;;;9.77;100.00
15646;BME280;7922;43.622;1.476;2023-11-21T06:44:51;100180.75;;;9.58;100.00
15646;BME280;7922;43.622;1.476;2023-11-21T06:47:17;100217.38;;;9.71;100.00
15646;BME280;7922;43.622;1.476;2023-11-21T06:49:45;100163.53;;;9.47;100.00
15646;BME280;7922;43.622;1.476;2023-11-21T06:52:11;100196.47;;;9.63;100.00
15646;BME280;7922;43.622;1.476;2023-11-21T06:54:36;100204.25;;;9.68;100.00
15646;BME280;7922;43.622;1.476;2023-11-21T06:57:02;100202.63;;;9.63;100.00
15646;BME280;7922;43.622;1.476;2023-11-21T06:59:30;100200.25;;;9.56;100.00
15646;BME280;7922;43.622;1.476;2023-11-21T07:01:56;100168.94;;;9.44;100.00
15646;BME280;7922;43.622;1.476;2023-11-21T07:04:21;100199.41;;;9.55;100.00
15646;BME280;7922;43.622;1.476;2023-11-21T07:06:46;100207.09;;;9.61;100.00
15646;BME280;7922;43.622;1.476;2023-11-21T07:09:11;100202.66;;;9.62;100.00
15646;BME280;7922;43.622;1.476;2023-11-21T07:11:37;100214.63;;;9.74;100.00
15646;BME280;7922;43.622;1.476;2023-11-21T07:14:02;100200.84;;;9.64;100.00
15646;BME280;7922;43.622;1.476;2023-11-21T07:16:28;100206.03;;;9.67;100.00
15646;BME280;7922;43.622;1.476;2023-11-21T07:18:53;100217.47;;;9.68;100.00
15646;BME280;7922;43.622;1.476;2023-11-21T07:21:18;100208.78;;;9.64;100.00
15646;BME280;7922;43.622;1.476;2023-11-21T07:23:43;100213.03;;;9.68;100.00
15646;BME280;7922;43.622;1.476;2023-11-21T07:26:09;100220.06;;;9.69;100.00
15646;BME280;7922;43.622;1.476;2023-11-21T07:28:35;100196.78;;;9.54;100.00
15646;BME280;7922;43.622;1.476;2023-11-21T07:31:00;100240.16;;;9.75;100.00
15646;BME280;7922;43.622;1.476;2023-11-21T07:33:25;100193.47;;;9.49;100.00
15646;BME280;7922;43.622;1.476;2023-11-21T07:35:51;100240.16;;;9.75;100.00
15646;BME280;7922;43.622;1.476;2023-11-21T07:38:16;100210.75;;;9.59;100.00
15646;BME280;7922;43.622;1.476;2023-11-21T07:40:41;100225.72;;;9.58;100.00
15646;BME280;7922;43.622;1.476;2023-11-21T07:43:06;100206.78;;;9.46;100.00
15646;BME280;7922;43.622;1.476;2023-11-21T07:45:32;100253.03;;;9.84;100.00
15646;BME280;7922;43.622;1.476;2023-11-21T07:47:57;100242.97;;;9.70;100.00
15646;BME280;7922;43.622;1.476;2023-11-21T07:50:22;100242.72;;;9.76;100.00
15646;BME280;7922;43.622;1.476;2023-11-21T07:52:48;100260.09;;;9.85;100.00
15646;BME280;7922;43.622;1.476;2023-11-21T07:55:13;100248.03;;;9.76;100.00
15646;BME280;7922;43.622;1.476;2023-11-21T07:57:39;100243.56;;;9.78;100.00
15646;BME280;7922;43.622;1.476;2023-11-21T08:00:05;100263.31;;;9.93;100.00
15646;BME280;7922;43.622;1.476;2023-11-21T08:02:31;100257.28;;;9.89;100.00
15646;BME280;7922;43.622;1.476;2023-11-21T08:04:56;100250.34;;;9.85;100.00
15646;BME280;7922;43.622;1.476;2023-11-21T08:07:21;100257.34;;;9.88;100.00
15646;BME280;7922;43.622;1.476;2023-11-21T08:09:46;100262.56;;;9.89;100.00
15646;BME280;7922;43.622;1.476;2023-11-21T08:12:12;100277.00;;;10.06;100.00
15646;BME280;7922;43.622;1.476;2023-11-21T08:14:37;100221.63;;;9.75;100.00
15646;BME280;7922;43.622;1.476;2023-11-21T08:17:02;100260.19;;;10.07;100.00
15646;BME280;7922;43.622;1.476;2023-11-21T08:19:28;100264.00;;;10.23;100.00
15646;BME280;7922;43.622;1.476;2023-11-21T08:21:53;100265.50;;;10.32;100.00
15646;BME280;7922;43.622;1.476;2023-11-21T08:24:18;100244.13;;;10.36;100.00
15646;BME280;7922;43.622;1.476;2023-11-21T08:26:43;100253.34;;;10.50;100.00
15646;BME280;7922;43.622;1.476;2023-11-21T08:29:09;100255.09;;;10.49;100.00
15646;BME280;7922;43.622;1.476;2023-11-21T08:31:34;100270.09;;;10.50;100.00
15646;BME280;7922;43.622;1.476;2023-11-21T08:33:59;100232.19;;;10.25;100.00
15646;BME280;7922;43.622;1.476;2023-11-21T08:36:25;100271.25;;;10.43;100.00
15646;BME280;7922;43.622;1.476;2023-11-21T08:38:51;100277.50;;;10.41;100.00
15646;BME280;7922;43.622;1.476;2023-11-21T08:41:16;100268.06;;;10.33;100.00
15646;BME280;7922;43.622;1.476;2023-11-21T08:43:42;100267.78;;;10.41;100.00
15646;BME280;7922;43.622;1.476;2023-11-21T08:46:07;100261.72;;;10.38;100.00
15646;BME280;7922;43.622;1.476;2023-11-21T08:48:32;100273.91;;;10.43;100.00
15646;BME280;7922;43.622;1.476;2023-11-21T08:50:58;100273.16;;;10.40;100.00
15646;BME280;7922;43.622;1.476;2023-11-21T08:53:23;100230.03;;;10.11;100.00
15646;BME280;7922;43.622;1.476;2023-11-21T08:55:48;100274.94;;;10.39;100.00
15646;BME280;7922;43.622;1.476;2023-11-21T08:58:14;100265.50;;;10.32;100.00
15646;BME280;7922;43.622;1.476;2023-11-21T09:00:39;100239.22;;;10.26;100.00
15646;BME280;7922;43.622;1.476;2023-11-21T09:03:05;100275.44;;;10.49;100.00
15646;BME280;7922;43.622;1.476;2023-11-21T09:05:30;100246.88;;;10.33;100.00
15646;BME280;7922;43.622;1.476;2023-11-21T09:07:55;100268.53;;;10.45;100.00
15646;BME280;7922;43.622;1.476;2023-11-21T09:10:21;100269.25;;;10.50;100.00
15646;BME280;7922;43.622;1.476;2023-11-21T09:12:46;100285.13;;;10.50;100.00
15646;BME280;7922;43.622;1.476;2023-11-21T09:15:11;100257.66;;;10.29;100.00
15646;BME280;7922;43.622;1.476;2023-11-21T09:17:36;100284.88;;;10.56;100.00
15646;BME280;7922;43.622;1.476;2023-11-21T09:20:02;100280.28;;;10.61;100.00
15646;BME280;7922;43.622;1.476;2023-11-21T09:22:27;100257.75;;;10.49;100.00
15646;BME280;7922;43.622;1.476;2023-11-21T09:24:53;100267.19;;;10.56;100.00
15646;BME280;7922;43.622;1.476;2023-11-21T09:27:19;100284.78;;;10.82;100.00
15646;BME280;7922;43.622;1.476;2023-11-21T09:29:44;100251.25;;;10.58;100.00
15646;BME280;7922;43.622;1.476;2023-11-21T09:32:09;100283.41;;;10.72;100.00
15646;BME280;7922;43.622;1.476;2023-11-21T09:34:35;100283.97;;;10.80;100.00
15646;BME280;7922;43.622;1.476;2023-11-21T09:37:00;100302.91;;;10.93;100.00
15646;BME280;7922;43.622;1.476;2023-11-21T09:39:25;100305.56;;;10.93;100.00
15646;BME280;7922;43.622;1.476;2023-11-21T09:41:52;100292.13;;;10.98;100.00
15646;BME280;7922;43.622;1.476;2023-11-21T09:44:18;100293.09;;;10.95;100.00
15646;BME280;7922;43.622;1.476;2023-11-21T09:46:47;100298.50;;;10.92;100.00
15646;BME280;7922;43.622;1.476;2023-11-21T09:49:13;100266.34;;;10.79;100.00
15646;BME280;7922;43.622;1.476;2023-11-21T09:51:40;100289.47;;;11.20;100.00
15646;BME280;7922;43.622;1.476;2023-11-21T09:54:08;100294.47;;;11.05;100.00
15646;BME280;7922;43.622;1.476;2023-11-21T09:56:35;100297.00;;;11.08;100.00
15646;BME280;7922;43.622;1.476;2023-11-21T09:59:01;100276.97;;;11.23;100.00
15646;BME280;7922;43.622;1.476;2023-11-21T10:01:28;100295.84;;;11.38;100.00
15646;BME280;7922;43.622;1.476;2023-11-21T10:03:53;100290.47;;;11.39;100.00
15646;BME280;7922;43.622;1.476;2023-11-21T10:06:20;100287.34;;;11.29;100.00
15646;BME280;7922;43.622;1.476;2023-11-21T10:08:46;100279.13;;;11.14;100.00
15646;BME280;7922;43.622;1.476;2023-11-21T10:11:12;100312.31;;;11.24;100.00
15646;BME280;7922;43.622;1.476;2023-11-21T10:13:39;100309.03;;;11.17;100.00
15646;BME280;7922;43.622;1.476;2023-11-21T10:16:05;100290.66;;;11.13;100.00
15646;BME280;7922;43.622;1.476;2023-11-21T10:18:33;100292.56;;;11.09;100.00
15646;BME280;7922;43.622;1.476;2023-11-21T10:20:58;100262.34;;;10.91;100.00
15646;BME280;7922;43.622;1.476;2023-11-21T10:23:24;100286.94;;;11.17;100.00
15646;BME280;7922;43.622;1.476;2023-11-21T10:25:50;100311.69;;;11.39;100.00
15646;BME280;7922;43.622;1.476;2023-11-21T10:28:16;100281.09;;;11.30;100.00
15646;BME280;7922;43.622;1.476;2023-11-21T10:30:41;100277.88;;;11.44;100.00
15646;BME280;7922;43.622;1.476;2023-11-21T10:33:07;100294.72;;;11.43;100.00
15646;BME280;7922;43.622;1.476;2023-11-21T10:38:05;100289.25;;;11.26;100.00
15646;BME280;7922;43.622;1.476;2023-11-21T10:40:30;100277.75;;;11.25;100.00
15646;BME280;7922;43.622;1.476;2023-11-21T10:43:06;100287.34;;;11.29;100.00
15646;BME280;7922;43.622;1.476;2023-11-21T10:45:31;100280.25;;;11.30;100.00
15646;BME280;7922;43.622;1.476;2023-11-21T10:47:57;100292.50;;;11.32;100.00
15646;BME280;7922;43.622;1.476;2023-11-21T10:50:23;100283.63;;;11.33;100.00
15646;BME280;7922;43.622;1.476;2023-11-21T10:52:48;100295.88;;;11.36;100.00
15646;BME280;7922;43.622;1.476;2023-11-21T10:55:20;100300.69;;;11.48;100.00
15646;BME280;7922;43.622;1.476;2023-11-21T10:57:48;100295.72;;;11.41;100.00
15646;BME280;7922;43.622;1.476;2023-11-21T11:00:15;100286.09;;;11.38;100.00
15646;BME280;7922;43.622;1.476;2023-11-21T11:02:41;100284.28;;;11.39;100.00
15646;BME280;7922;43.622;1.476;2023-11-21T11:05:07;100288.34;;;11.47;100.00
15646;BME280;7922;43.622;1.476;2023-11-21T11:07:34;100298.84;;;11.50;100.00
15646;BME280;7922;43.622;1.476;2023-11-21T11:10:00;100262.34;;;11.13;100.00
15646;BME280;7922;43.622;1.476;2023-11-21T11:12:26;100295.75;;;11.39;100.00
15646;BME280;7922;43.622;1.476;2023-11-21T11:14:51;100250.63;;;11.41;100.00
15646;BME280;7922;43.622;1.476;2023-11-21T11:17:16;100273.88;;;11.34;100.00
15646;BME280;7922;43.622;1.476;2023-11-21T11:19:42;100272.88;;;11.15;100.00
15646;BME280;7922;43.622;1.476;2023-11-21T11:28:10;100287.06;;;11.14;100.00
15646;BME280;7922;43.622;1.476;2023-11-21T11:31:01;100271.59;;;11.25;100.00
15646;BME280;7922;43.622;1.476;2023-11-21T11:33:36;100248.97;;;11.16;100.00
15646;BME280;7922;43.622;1.476;2023-11-21T11:36:05;100302.41;;;11.49;100.00
15646;BME280;7922;43.622;1.476;2023-11-21T11:38:32;100250.88;;;11.13;100.00
15646;BME280;7922;43.622;1.476;2023-11-21T11:41:02;100263.06;;;11.39;100.00
15646;BME280;7922;43.622;1.476;2023-11-21T11:43:27;100285.03;;;11.42;100.00
15646;BME280;7922;43.622;1.476;2023-11-21T11:45:56;100253.84;;;11.27;100.00
15646;BME280;7922;43.622;1.476;2023-11-21T11:48:22;100281.19;;;11.49;100.00
15646;BME280;7922;43.622;1.476;2023-11-21T11:51:26;100267.28;;;11.44;100.00
15646;BME280;7922;43.622;1.476;2023-11-21T11:53:51;100251.81;;;11.54;100.00
15646;BME280;7922;43.622;1.476;2023-11-21T11:56:33;100273.88;;;11.76;100.00
15646;BME280;7922;43.622;1.476;2023-11-21T11:59:00;100230.91;;;11.46;100.00
15646;BME280;7922;43.622;1.476;2023-11-21T12:01:27;100272.56;;;11.87;100.00
15646;BME280;7922;43.622;1.476;2023-11-21T12:06:36;100249.28;;;11.73;100.00
15646;BME280;7922;43.622;1.476;2023-11-21T12:09:02;100258.84;;;11.97;100.00
15646;BME280;7922;43.622;1.476;2023-11-21T12:11:33;100252.53;;;12.00;99.68
15646;BME280;7922;43.622;1.476;2023-11-21T12:13:58;100254.13;;;12.04;99.71
15646;BME280;7922;43.622;1.476;2023-11-21T12:16:25;100236.53;;;12.01;99.42
15646;BME280;7922;43.622;1.476;2023-11-21T12:18:50;100253.66;;;11.94;98.91
15646;BME280;7922;43.622;1.476;2023-11-21T12:21:16;100252.91;;;11.91;98.43
15646;BME280;7922;43.622;1.476;2023-11-21T12:23:41;100263.38;;;11.95;100.00
15646;BME280;7922;43.622;1.476;2023-11-21T12:26:06;100265.88;;;11.98;100.00
15646;BME280;7922;43.622;1.476;2023-11-21T12:28:32;100262.03;;;11.85;100.00
15646;BME280;7922;43.622;1.476;2023-11-21T12:30:57;100264.44;;;11.91;100.00
15646;BME280;7922;43.622;1.476;2023-11-21T12:33:22;100258.81;;;11.77;100.00
15646;BME280;7922;43.622;1.476;2023-11-21T12:35:47;100255.88;;;11.83;99.40
15646;BME280;7922;43.622;1.476;2023-11-21T12:38:13;100262.75;;;11.89;97.88
15646;BME280;7922;43.622;1.476;2023-11-21T12:40:38;100261.41;;;11.78;98.60
15646;BME280;7922;43.622;1.476;2023-11-21T12:43:03;100251.03;;;11.72;98.73
15646;BME280;7922;43.622;1.476;2023-11-21T12:45:29;100272.06;;;11.99;99.68
15646;BME280;7922;43.622;1.476;2023-11-21T12:48:02;100259.59;;;11.79;99.98
15646;BME280;7922;43.622;1.476;2023-11-21T12:50:30;100269.22;;;11.81;100.00
15646;BME280;7922;43.622;1.476;2023-11-21T12:53:01;100237.59;;;11.77;100.00
15646;BME280;7922;43.622;1.476;2023-11-21T12:55:30;100264.94;;;11.99;100.00
15646;BME280;7922;43.622;1.476;2023-11-21T12:57:55;100255.56;;;11.91;99.69
15646;BME280;7922;43.622;1.476;2023-11-21T13:00:29;100273.44;;;11.87;100.00